Fascination — C6FM9 — position and weather

sailwx.info

Track history (hours):
 
Tides and Currents Weather Stations Pressure Air Temp Water Temp Dewpoint Dewpoint Depression Visibility Wind Speed Wind Dir Waves Ship Positions

Fascination

Operator: Carnival Cruise Lines

Last reported at 2019-Aug-24 08:34 UTC. Time now 2019-Aug-24 20:40 UTC.
Position N 14°18' W 061°17'.

Type: Ship. MMSI: 309682000.

Date/timePositionNaut miles runAvg speedWind from/ knotsBaromVisibWave heightAir tempDewpointWater temp
2019-Aug-24 08:34N 14°18' W 061°17'117.3
2019-Aug-24 08:31N 14°17' W 061°16'816.5
2019-Aug-24 08:01N 14°14' W 061°08'917.1
2019-Aug-24 07:30N 14°13' W 060°60'917.3
2019-Aug-24 07:01N 14°13' W 060°51'3167.5
2019-Aug-24 07:00N 14°12' W 060°48'611.7 080 / 101015.010.8 26.023.128.1
2019-Aug-24 06:31N 14°11' W 060°42'917.5
2019-Aug-24 06:00N 14°07' W 060°34'1717.2
2019-Aug-24 04:59N 13°54' W 060°23'62 3.3
2019-Aug-23 10:00N 13°06' W 059°42'3812.6 100 / 101013.0 1.1 27.024.1
2019-Aug-23 07:00N 13°30' W 060°12'41 8.3 090 / 151015.010.8 26.023.128.2
2019-Aug-23 02:00N 13°36' W 060°54'1616.3 100 / 171015.010.8 27.022.628.0
2019-Aug-23 01:00N 13°43' W 061°09'511.0
2019-Aug-23 00:31N 13°48' W 061°11'17 5.9
2019-Aug-22 21:43N 14°03' W 061°05'210.4
2019-Aug-22 21:30N 14°02' W 061°02'3 5.3
2019-Aug-22 20:55N 14°01' W 060°60'0 0.0
2019-Aug-22 20:28N 14°01' W 060°60'0 0.0
2019-Aug-22 19:55N 14°01' W 060°60'0 0.0
2019-Aug-22 19:25N 14°01' W 060°60'0 0.0
2019-Aug-22 19:01N 14°01' W 060°60'0 0.0
2019-Aug-22 18:30N 14°01' W 060°60'0 0.0
2019-Aug-22 18:00N 14°01' W 060°60'0 0.0
2019-Aug-22 17:30N 14°01' W 060°60'0 0.0
2019-Aug-22 16:54N 14°01' W 060°60'0 0.0
2019-Aug-22 16:23N 14°01' W 060°60'0 0.0
2019-Aug-22 15:59N 14°01' W 060°60'0 0.0
2019-Aug-22 12:52N 14°01' W 060°60'0 0.0
2019-Aug-22 12:28N 14°01' W 060°60'0 0.0
2019-Aug-22 11:57N 14°01' W 060°60'0 0.0
2019-Aug-22 11:30N 14°01' W 060°60'1 2.3
2019-Aug-22 11:00N 14°01' W 061°01'712.7
2019-Aug-22 10:30N 14°05' W 061°06'611.7
2019-Aug-22 10:00N 14°09' W 061°10'5568.0
2019-Aug-22 10:00N 14°06' W 061°06'1224.1 120 / 121014.0 0.5 28.025.2
2019-Aug-22 09:31N 14°14' W 061°15'4317.0
2019-Aug-22 07:00N 14°54' W 061°30'15016.5 130 / 161015.010.8 26.023.128.2
2019-Aug-21 21:52N 17°06' W 062°43'10 0.9
2019-Aug-21 10:50N 17°16' W 062°46'3 9.9
2019-Aug-21 10:30N 17°16' W 062°49'4 7.8
2019-Aug-21 10:00N 17°12' W 062°48'7957.8 080 / 121014.0 1.1 28.025.2
2019-Aug-21 09:59N 17°17' W 062°54'4 9.3
2019-Aug-21 09:30N 17°19' W 062°58'5 9.5
2019-Aug-21 08:59N 17°23' W 063°02'5 9.2
2019-Aug-21 08:29N 17°26' W 063°05'5 8.8
2019-Aug-21 07:57N 17°30' W 063°06'4 9.3
2019-Aug-21 07:29N 17°35' W 063°07'1 2.8
2019-Aug-21 07:00N 17°36' W 063°06'719.2 100 / 181015.010.8 26.023.128.2
2019-Aug-21 06:38N 17°43' W 063°08'7 9.0
2019-Aug-21 05:54N 17°47' W 063°13'8 9.4
2019-Aug-21 05:05N 17°51' W 063°20'15 9.6
2019-Aug-21 03:33N 17°53' W 063°36'0 7.9
2019-Aug-21 03:30N 17°53' W 063°36'6 9.3
2019-Aug-21 02:50N 17°55' W 063°42'5 6.5
2019-Aug-21 02:00N 18°00' W 063°42'518.3 070 / 201015.010.8 27.022.628.0
2019-Aug-21 01:43N 18°04' W 063°44'16 7.0
2019-Aug-20 23:26N 18°03' W 063°28'6 9.6
2019-Aug-20 22:48N 18°01' W 063°21'18 9.9
2019-Aug-20 21:01N 18°00' W 063°03'0 5.0
2019-Aug-20 20:59N 18°01' W 063°03'0 0.1
2019-Aug-20 20:25N 18°01' W 063°03'0 0.0
2019-Aug-20 19:40N 18°01' W 063°03'0 0.0
2019-Aug-20 19:22N 18°01' W 063°03'0 0.0
2019-Aug-20 18:43N 18°01' W 063°03'0 0.0
2019-Aug-20 18:12N 18°01' W 063°03'0 0.0
2019-Aug-20 17:44N 18°01' W 063°03'0 0.0
2019-Aug-20 17:24N 18°01' W 063°03'0 0.0
2019-Aug-20 16:33N 18°01' W 063°03'0 0.0
2019-Aug-20 16:00N 18°01' W 063°03'0 0.0
2019-Aug-20 14:50N 18°01' W 063°03'0 0.0
2019-Aug-20 14:17N 18°01' W 063°03'0 0.0
2019-Aug-20 13:41N 18°01' W 063°03'0 0.0
2019-Aug-20 12:37N 18°01' W 063°03'0 0.0
2019-Aug-20 12:07N 18°01' W 063°03'0 0.0
2019-Aug-20 11:54N 18°01' W 063°03'0 0.6
2019-Aug-20 11:17N 18°00' W 063°03'4 6.2
2019-Aug-20 10:41N 18°00' W 063°07'18 9.9
2019-Aug-20 08:55N 18°01' W 063°25'6 9.7
2019-Aug-20 08:17N 18°02' W 063°32'3 9.8
2019-Aug-20 08:00N 18°02' W 063°35'4 4.2
2019-Aug-20 07:00N 18°06' W 063°36'1021.1 100 / 231015.010.8 26.023.127.8
2019-Aug-20 06:32N 18°15' W 063°40'1 8.6
2019-Aug-20 06:26N 18°16' W 063°40'37 6.9
2019-Aug-20 01:00N 18°06' W 064°18'1513.6 090 / 201015.010.8 27.022.628.0
2019-Aug-19 23:55N 18°09' W 064°33'410.4
2019-Aug-19 23:30N 18°09' W 064°38'510.4
2019-Aug-19 23:00N 18°10' W 064°43'510.5
2019-Aug-19 22:30N 18°11' W 064°48'510.1
2019-Aug-19 22:00N 18°13' W 064°53'5 9.8
2019-Aug-19 21:30N 18°17' W 064°55'3 3.9
2019-Aug-19 20:50N 18°20' W 064°55'0 0.0
2019-Aug-19 20:26N 18°20' W 064°55'0 0.0
2019-Aug-19 19:56N 18°20' W 064°55'0 0.0
2019-Aug-19 19:14N 18°20' W 064°55'0 0.0
2019-Aug-19 18:56N 18°20' W 064°55'0 0.0
2019-Aug-19 18:25N 18°20' W 064°55'0 0.0
2019-Aug-19 17:55N 18°20' W 064°55'0 0.0
2019-Aug-19 17:25N 18°20' W 064°55'0 0.0
2019-Aug-19 16:55N 18°20' W 064°55'0 0.0
2019-Aug-19 16:25N 18°20' W 064°55'0 0.0
2019-Aug-19 16:00N 18°20' W 064°55'0 0.0
2019-Aug-19 15:30N 18°20' W 064°55'0 0.0
2019-Aug-19 15:00N 18°20' W 064°55'0 0.0
2019-Aug-19 14:30N 18°20' W 064°55'0 0.0
2019-Aug-19 13:53N 18°20' W 064°55'0 0.0
2019-Aug-19 13:29N 18°20' W 064°55'0 0.0
2019-Aug-19 12:59N 18°20' W 064°55'0 0.0
2019-Aug-19 12:29N 18°20' W 064°55'0 0.0
2019-Aug-19 11:59N 18°20' W 064°55'0 0.0
2019-Aug-19 11:28N 18°20' W 064°55'0 0.0
2019-Aug-19 10:59N 18°20' W 064°55'1 1.1
2019-Aug-19 10:30N 18°20' W 064°56'3 6.8
2019-Aug-19 10:00N 18°17' W 064°58'4 8.5
2019-Aug-19 09:30N 18°17' W 065°02'4 9.2
2019-Aug-19 09:00N 18°19' W 065°07'9566.8
2019-Aug-19 09:00N 18°12' W 065°00'1428.2 090 / 141014.0 0.5 27.024.1
2019-Aug-19 08:30N 18°22' W 065°10'5 9.8
2019-Aug-19 08:01N 18°27' W 065°11'5 9.8
2019-Aug-19 07:30N 18°32' W 065°12'5 9.8
2019-Aug-19 07:00N 18°36' W 065°12'157.1
2019-Aug-19 07:00N 18°36' W 065°12'511.1 100 / 251015.010.8 26.023.127.8
2019-Aug-19 06:30N 18°41' W 065°13'5 9.9
2019-Aug-19 06:00N 18°46' W 065°14'5 9.9
2019-Aug-19 05:30N 18°51' W 065°15'5 9.8
2019-Aug-19 05:00N 18°56' W 065°16'5 9.2
2019-Aug-19 04:31N 18°58' W 065°21'5 9.9
2019-Aug-19 04:00N 18°58' W 065°26'510.6
2019-Aug-19 03:30N 18°58' W 065°32'510.9
2019-Aug-19 03:00N 18°58' W 065°37'8480.4
2019-Aug-19 03:00N 18°54' W 065°30'1425.1 090 / 201015.010.8 27.022.628.0
2019-Aug-19 02:27N 18°58' W 065°44'511.0
2019-Aug-19 02:00N 18°58' W 065°49'610.5
2019-Aug-19 01:24N 18°57' W 065°56'510.9
2019-Aug-19 00:57N 18°52' W 065°58'510.6
2019-Aug-19 00:27N 18°47' W 066°00'510.6
2019-Aug-18 23:56N 18°43' W 066°03'510.4
2019-Aug-18 23:29N 18°38' W 066°05'510.6
2019-Aug-18 23:00N 18°34' W 066°07'510.4
2019-Aug-18 22:30N 18°28' W 066°08'1 2.5
2019-Aug-18 22:00N 18°28' W 066°07'0 0.0
2019-Aug-18 21:27N 18°28' W 066°07'0 0.0
2019-Aug-18 20:14N 18°28' W 066°07'0 0.0
2019-Aug-18 19:58N 18°28' W 066°07'0 0.0
2019-Aug-18 19:08N 18°28' W 066°07'0 0.0
2019-Aug-18 18:50N 18°28' W 066°07'0 0.0
2019-Aug-18 18:01N 18°28' W 066°07'0 0.0
2019-Aug-18 16:49N 18°28' W 066°07'0 0.0
2019-Aug-18 16:07N 18°28' W 066°07'0 0.0
2019-Aug-18 15:36N 18°28' W 066°07'0 0.0
2019-Aug-18 15:27N 18°28' W 066°07'0 0.0
2019-Aug-18 14:51N 18°28' W 066°07'0 0.0
2019-Aug-18 14:21N 18°28' W 066°07'0 0.0
2019-Aug-18 13:54N 18°28' W 066°07'0 0.0
2019-Aug-18 13:29N 18°28' W 066°07'0 0.0
2019-Aug-18 12:53N 18°28' W 066°07'0 0.0
2019-Aug-18 12:29N 18°28' W 066°07'0 0.0
2019-Aug-18 11:56N 18°28' W 066°07'0 0.0
2019-Aug-18 11:29N 18°28' W 066°07'0 0.0
2019-Aug-18 11:00N 18°28' W 066°07'0 0.2
2019-Aug-18 10:30N 18°28' W 066°07'4 6.2
2019-Aug-18 09:52N 18°31' W 066°08'712.2
2019-Aug-18 09:20N 18°38' W 066°05'411.3
2019-Aug-18 09:00N 18°41' W 066°03'6395.1
2019-Aug-18 09:00N 18°36' W 066°00'815.7 100 / 201013.0 0.5 27.024.1
2019-Aug-18 08:28N 18°44' W 065°58'612.3
2019-Aug-18 08:00N 18°43' W 065°52'1212.2
2019-Aug-18 07:00N 18°41' W 065°39'612.4
2019-Aug-18 06:30N 18°40' W 065°33'612.5
2019-Aug-18 06:00N 18°39' W 065°27'612.1
2019-Aug-18 05:30N 18°36' W 065°21'612.6
2019-Aug-18 05:00N 18°31' W 065°17'612.7
2019-Aug-18 04:30N 18°26' W 065°13'816.2
2019-Aug-18 04:00N 18°19' W 065°10'714.6
2019-Aug-18 03:30N 18°12' W 065°06'917.4
2019-Aug-18 03:00N 18°10' W 064°57'917.5
2019-Aug-18 02:30N 18°08' W 064°48'917.5
2019-Aug-18 02:00N 18°06' W 064°39'11916.9
2019-Aug-17 19:00N 16°36' W 063°18'7117.8 100 / 181015.010.8 28.025.227.8
2019-Aug-17 15:00N 15°42' W 062°30'11017.4 100 / 251015.010.8 28.023.728.0
2019-Aug-17 08:40N 14°16' W 061°18'317.0
2019-Aug-17 08:31N 14°14' W 061°16'917.6
2019-Aug-17 08:00N 14°14' W 061°07'917.1
2019-Aug-17 07:31N 14°13' W 060°58'917.2
2019-Aug-17 07:01N 14°12' W 060°50'291.6
2019-Aug-17 07:00N 14°12' W 060°48'714.5 100 / 151015.010.8 26.023.127.8
2019-Aug-17 06:31N 14°10' W 060°41'816.4
2019-Aug-17 06:00N 14°06' W 060°33'78 3.9
2019-Aug-16 10:00N 13°06' W 059°42'29 9.8 060 / 141014.0 0.5 27.025.6
2019-Aug-16 07:00N 13°24' W 060°06'66 9.2 070 / 201013.010.8 26.023.127.7
2019-Aug-15 23:50N 13°45' W 061°10'3 8.8
2019-Aug-15 23:29N 13°48' W 061°11'4 8.9
2019-Aug-15 23:01N 13°52' W 061°11'510.4
2019-Aug-15 22:31N 13°57' W 061°10'510.7
2019-Aug-15 22:00N 14°02' W 061°09'5 9.5
2019-Aug-15 21:30N 14°03' W 061°04'5 1.2
2019-Aug-15 17:43N 14°01' W 060°60'0 0.0
2019-Aug-15 17:24N 14°01' W 060°60'0 0.0
2019-Aug-15 16:54N 14°01' W 060°60'0 0.0
2019-Aug-15 16:27N 14°01' W 060°60'0 0.0
2019-Aug-15 15:57N 14°01' W 060°60'0 0.0
2019-Aug-15 15:29N 14°01' W 060°60'0 0.0
2019-Aug-15 14:53N 14°01' W 060°60'0 0.0
2019-Aug-15 14:29N 14°01' W 060°60'0 0.0
2019-Aug-15 13:59N 14°01' W 060°60'0 0.0
2019-Aug-15 13:29N 14°01' W 060°60'0 0.0
2019-Aug-15 12:59N 14°01' W 060°60'0 0.0
2019-Aug-15 12:28N 14°01' W 060°60'0 0.0
2019-Aug-15 11:52N 14°01' W 060°60'0 0.1
2019-Aug-15 11:24N 14°01' W 060°60'1 3.3
2019-Aug-15 11:00N 14°01' W 061°01'713.2
2019-Aug-15 10:30N 14°05' W 061°06'815.3
2019-Aug-15 10:00N 14°10' W 061°13'8478.5
2019-Aug-15 10:00N 14°06' W 061°06'4816.0 090 / 281013.0 0.5 26.023.1
2019-Aug-15 07:00N 14°48' W 061°30'6917.3 100 / 351013.010.8 26.023.127.5
2019-Aug-15 03:00N 15°48' W 062°06'8716.3 170 / 311015.010.8 27.022.628.0
2019-Aug-14 21:40N 17°07' W 062°43'716.6
2019-Aug-14 21:13N 17°15' W 062°43'2 0.2
2019-Aug-14 10:58N 17°16' W 062°46'9 8.5
2019-Aug-14 09:56N 17°17' W 062°55'4 8.9
2019-Aug-14 09:30N 17°20' W 062°57'5 8.9
2019-Aug-14 08:59N 17°23' W 063°01'  
Track history (hours):
 
Tides and Currents Weather Stations Pressure Air Temp Water Temp Dewpoint Dewpoint Depression Visibility Wind Speed Wind Dir Waves Ship Positions

Fascination

Operator: Carnival Cruise Lines

Last reported at 2019-Aug-24 08:34 UTC. Time now 2019-Aug-24 20:40 UTC.
Position N 14°18' W 061°17'.

Type: Ship. MMSI: 309682000.

Date/timePositionNaut miles runAvg speedWind from/ knotsBaromVisibWave heightAir tempDewpointWater temp
2019-Aug-24 08:34N 14°18' W 061°17'117.3
2019-Aug-24 08:31N 14°17' W 061°16'816.5
2019-Aug-24 08:01N 14°14' W 061°08'917.1
2019-Aug-24 07:30N 14°13' W 060°60'917.3
2019-Aug-24 07:01N 14°13' W 060°51'3167.5
2019-Aug-24 07:00N 14°12' W 060°48'611.7 080 / 101015.010.8 26.023.128.1
2019-Aug-24 06:31N 14°11' W 060°42'917.5
2019-Aug-24 06:00N 14°07' W 060°34'1717.2
2019-Aug-24 04:59N 13°54' W 060°23'62 3.3
2019-Aug-23 10:00N 13°06' W 059°42'3812.6 100 / 101013.0 1.1 27.024.1
2019-Aug-23 07:00N 13°30' W 060°12'41 8.3 090 / 151015.010.8 26.023.128.2
2019-Aug-23 02:00N 13°36' W 060°54'1616.3 100 / 171015.010.8 27.022.628.0
2019-Aug-23 01:00N 13°43' W 061°09'511.0
2019-Aug-23 00:31N 13°48' W 061°11'17 5.9
2019-Aug-22 21:43N 14°03' W 061°05'210.4
2019-Aug-22 21:30N 14°02' W 061°02'3 5.3
2019-Aug-22 20:55N 14°01' W 060°60'0 0.0
2019-Aug-22 20:28N 14°01' W 060°60'0 0.0
2019-Aug-22 19:55N 14°01' W 060°60'0 0.0
2019-Aug-22 19:25N 14°01' W 060°60'0 0.0
2019-Aug-22 19:01N 14°01' W 060°60'0 0.0
2019-Aug-22 18:30N 14°01' W 060°60'0 0.0
2019-Aug-22 18:00N 14°01' W 060°60'0 0.0
2019-Aug-22 17:30N 14°01' W 060°60'0 0.0
2019-Aug-22 16:54N 14°01' W 060°60'0 0.0
2019-Aug-22 16:23N 14°01' W 060°60'0 0.0
2019-Aug-22 15:59N 14°01' W 060°60'0 0.0
2019-Aug-22 12:52N 14°01' W 060°60'0 0.0
2019-Aug-22 12:28N 14°01' W 060°60'0 0.0
2019-Aug-22 11:57N 14°01' W 060°60'0 0.0
2019-Aug-22 11:30N 14°01' W 060°60'1 2.3
2019-Aug-22 11:00N 14°01' W 061°01'712.7
2019-Aug-22 10:30N 14°05' W 061°06'611.7
2019-Aug-22 10:00N 14°09' W 061°10'5568.0
2019-Aug-22 10:00N 14°06' W 061°06'1224.1 120 / 121014.0 0.5 28.025.2
2019-Aug-22 09:31N 14°14' W 061°15'4317.0
2019-Aug-22 07:00N 14°54' W 061°30'15016.5 130 / 161015.010.8 26.023.128.2
2019-Aug-21 21:52N 17°06' W 062°43'10 0.9
2019-Aug-21 10:50N 17°16' W 062°46'3 9.9
2019-Aug-21 10:30N 17°16' W 062°49'4 7.8
2019-Aug-21 10:00N 17°12' W 062°48'7957.8 080 / 121014.0 1.1 28.025.2
2019-Aug-21 09:59N 17°17' W 062°54'4 9.3
2019-Aug-21 09:30N 17°19' W 062°58'5 9.5
2019-Aug-21 08:59N 17°23' W 063°02'5 9.2
2019-Aug-21 08:29N 17°26' W 063°05'5 8.8
2019-Aug-21 07:57N 17°30' W 063°06'4 9.3
2019-Aug-21 07:29N 17°35' W 063°07'1 2.8
2019-Aug-21 07:00N 17°36' W 063°06'719.2 100 / 181015.010.8 26.023.128.2
2019-Aug-21 06:38N 17°43' W 063°08'7 9.0
2019-Aug-21 05:54N 17°47' W 063°13'8 9.4
2019-Aug-21 05:05N 17°51' W 063°20'15 9.6
2019-Aug-21 03:33N 17°53' W 063°36'0 7.9
2019-Aug-21 03:30N 17°53' W 063°36'6 9.3
2019-Aug-21 02:50N 17°55' W 063°42'5 6.5
2019-Aug-21 02:00N 18°00' W 063°42'518.3 070 / 201015.010.8 27.022.628.0
2019-Aug-21 01:43N 18°04' W 063°44'16 7.0
2019-Aug-20 23:26N 18°03' W 063°28'6 9.6
2019-Aug-20 22:48N 18°01' W 063°21'18 9.9
2019-Aug-20 21:01N 18°00' W 063°03'0 5.0
2019-Aug-20 20:59N 18°01' W 063°03'0 0.1
2019-Aug-20 20:25N 18°01' W 063°03'0 0.0
2019-Aug-20 19:40N 18°01' W 063°03'0 0.0
2019-Aug-20 19:22N 18°01' W 063°03'0 0.0
2019-Aug-20 18:43N 18°01' W 063°03'0 0.0
2019-Aug-20 18:12N 18°01' W 063°03'0 0.0
2019-Aug-20 17:44N 18°01' W 063°03'0 0.0
2019-Aug-20 17:24N 18°01' W 063°03'0 0.0
2019-Aug-20 16:33N 18°01' W 063°03'0 0.0
2019-Aug-20 16:00N 18°01' W 063°03'0 0.0
2019-Aug-20 14:50N 18°01' W 063°03'0 0.0
2019-Aug-20 14:17N 18°01' W 063°03'0 0.0
2019-Aug-20 13:41N 18°01' W 063°03'0 0.0
2019-Aug-20 12:37N 18°01' W 063°03'0 0.0
2019-Aug-20 12:07N 18°01' W 063°03'0 0.0
2019-Aug-20 11:54N 18°01' W 063°03'0 0.6
2019-Aug-20 11:17N 18°00' W 063°03'4 6.2
2019-Aug-20 10:41N 18°00' W 063°07'18 9.9
2019-Aug-20 08:55N 18°01' W 063°25'6 9.7
2019-Aug-20 08:17N 18°02' W 063°32'3 9.8
2019-Aug-20 08:00N 18°02' W 063°35'4 4.2
2019-Aug-20 07:00N 18°06' W 063°36'1021.1 100 / 231015.010.8 26.023.127.8
2019-Aug-20 06:32N 18°15' W 063°40'1 8.6
2019-Aug-20 06:26N 18°16' W 063°40'37 6.9
2019-Aug-20 01:00N 18°06' W 064°18'1513.6 090 / 201015.010.8 27.022.628.0
2019-Aug-19 23:55N 18°09' W 064°33'410.4
2019-Aug-19 23:30N 18°09' W 064°38'510.4
2019-Aug-19 23:00N 18°10' W 064°43'510.5
2019-Aug-19 22:30N 18°11' W 064°48'510.1
2019-Aug-19 22:00N 18°13' W 064°53'5 9.8
2019-Aug-19 21:30N 18°17' W 064°55'3 3.9
2019-Aug-19 20:50N 18°20' W 064°55'0 0.0
2019-Aug-19 20:26N 18°20' W 064°55'0 0.0
2019-Aug-19 19:56N 18°20' W 064°55'0 0.0
2019-Aug-19 19:14N 18°20' W 064°55'0 0.0
2019-Aug-19 18:56N 18°20' W 064°55'0 0.0
2019-Aug-19 18:25N 18°20' W 064°55'0 0.0
2019-Aug-19 17:55N 18°20' W 064°55'0 0.0
2019-Aug-19 17:25N 18°20' W 064°55'0 0.0
2019-Aug-19 16:55N 18°20' W 064°55'0 0.0
2019-Aug-19 16:25N 18°20' W 064°55'0 0.0
2019-Aug-19 16:00N 18°20' W 064°55'0 0.0
2019-Aug-19 15:30N 18°20' W 064°55'0 0.0
2019-Aug-19 15:00N 18°20' W 064°55'0 0.0
2019-Aug-19 14:30N 18°20' W 064°55'0 0.0
2019-Aug-19 13:53N 18°20' W 064°55'0 0.0
2019-Aug-19 13:29N 18°20' W 064°55'0 0.0
2019-Aug-19 12:59N 18°20' W 064°55'0 0.0
2019-Aug-19 12:29N 18°20' W 064°55'0 0.0
2019-Aug-19 11:59N 18°20' W 064°55'0 0.0
2019-Aug-19 11:28N 18°20' W 064°55'0 0.0
2019-Aug-19 10:59N 18°20' W 064°55'1 1.1
2019-Aug-19 10:30N 18°20' W 064°56'3 6.8
2019-Aug-19 10:00N 18°17' W 064°58'4 8.5
2019-Aug-19 09:30N 18°17' W 065°02'4 9.2
2019-Aug-19 09:00N 18°19' W 065°07'9566.8
2019-Aug-19 09:00N 18°12' W 065°00'1428.2 090 / 141014.0 0.5 27.024.1
2019-Aug-19 08:30N 18°22' W 065°10'5 9.8
2019-Aug-19 08:01N 18°27' W 065°11'5 9.8
2019-Aug-19 07:30N 18°32' W 065°12'5 9.8
2019-Aug-19 07:00N 18°36' W 065°12'157.1
2019-Aug-19 07:00N 18°36' W 065°12'511.1 100 / 251015.010.8 26.023.127.8
2019-Aug-19 06:30N 18°41' W 065°13'5 9.9
2019-Aug-19 06:00N 18°46' W 065°14'5 9.9
2019-Aug-19 05:30N 18°51' W 065°15'5 9.8
2019-Aug-19 05:00N 18°56' W 065°16'5 9.2
2019-Aug-19 04:31N 18°58' W 065°21'5 9.9
2019-Aug-19 04:00N 18°58' W 065°26'510.6
2019-Aug-19 03:30N 18°58' W 065°32'510.9
2019-Aug-19 03:00N 18°58' W 065°37'8480.4
2019-Aug-19 03:00N 18°54' W 065°30'1425.1 090 / 201015.010.8 27.022.628.0
2019-Aug-19 02:27N 18°58' W 065°44'511.0
2019-Aug-19 02:00N 18°58' W 065°49'610.5
2019-Aug-19 01:24N 18°57' W 065°56'510.9
2019-Aug-19 00:57N 18°52' W 065°58'510.6
2019-Aug-19 00:27N 18°47' W 066°00'510.6
2019-Aug-18 23:56N 18°43' W 066°03'510.4
2019-Aug-18 23:29N 18°38' W 066°05'510.6
2019-Aug-18 23:00N 18°34' W 066°07'510.4
2019-Aug-18 22:30N 18°28' W 066°08'1 2.5
2019-Aug-18 22:00N 18°28' W 066°07'0 0.0
2019-Aug-18 21:27N 18°28' W 066°07'0 0.0
2019-Aug-18 20:14N 18°28' W 066°07'0 0.0
2019-Aug-18 19:58N 18°28' W 066°07'0 0.0
2019-Aug-18 19:08N 18°28' W 066°07'0 0.0
2019-Aug-18 18:50N 18°28' W 066°07'0 0.0
2019-Aug-18 18:01N 18°28' W 066°07'0 0.0
2019-Aug-18 16:49N 18°28' W 066°07'0 0.0
2019-Aug-18 16:07N 18°28' W 066°07'0 0.0
2019-Aug-18 15:36N 18°28' W 066°07'0 0.0
2019-Aug-18 15:27N 18°28' W 066°07'0 0.0
2019-Aug-18 14:51N 18°28' W 066°07'0 0.0
2019-Aug-18 14:21N 18°28' W 066°07'0 0.0
2019-Aug-18 13:54N 18°28' W 066°07'0 0.0
2019-Aug-18 13:29N 18°28' W 066°07'0 0.0
2019-Aug-18 12:53N 18°28' W 066°07'0 0.0
2019-Aug-18 12:29N 18°28' W 066°07'0 0.0
2019-Aug-18 11:56N 18°28' W 066°07'0 0.0
2019-Aug-18 11:29N 18°28' W 066°07'0 0.0
2019-Aug-18 11:00N 18°28' W 066°07'0 0.2
2019-Aug-18 10:30N 18°28' W 066°07'4 6.2
2019-Aug-18 09:52N 18°31' W 066°08'712.2
2019-Aug-18 09:20N 18°38' W 066°05'411.3
2019-Aug-18 09:00N 18°41' W 066°03'6395.1
2019-Aug-18 09:00N 18°36' W 066°00'815.7 100 / 201013.0 0.5 27.024.1
2019-Aug-18 08:28N 18°44' W 065°58'612.3
2019-Aug-18 08:00N 18°43' W 065°52'1212.2
2019-Aug-18 07:00N 18°41' W 065°39'612.4
2019-Aug-18 06:30N 18°40' W 065°33'612.5
2019-Aug-18 06:00N 18°39' W 065°27'612.1
2019-Aug-18 05:30N 18°36' W 065°21'612.6
2019-Aug-18 05:00N 18°31' W 065°17'612.7
2019-Aug-18 04:30N 18°26' W 065°13'816.2
2019-Aug-18 04:00N 18°19' W 065°10'714.6
2019-Aug-18 03:30N 18°12' W 065°06'917.4
2019-Aug-18 03:00N 18°10' W 064°57'917.5
2019-Aug-18 02:30N 18°08' W 064°48'917.5
2019-Aug-18 02:00N 18°06' W 064°39'11916.9
2019-Aug-17 19:00N 16°36' W 063°18'7117.8 100 / 181015.010.8 28.025.227.8
2019-Aug-17 15:00N 15°42' W 062°30'11017.4 100 / 251015.010.8 28.023.728.0
2019-Aug-17 08:40N 14°16' W 061°18'317.0
2019-Aug-17 08:31N 14°14' W 061°16'917.6
2019-Aug-17 08:00N 14°14' W 061°07'917.1
2019-Aug-17 07:31N 14°13' W 060°58'917.2
2019-Aug-17 07:01N 14°12' W 060°50'291.6
2019-Aug-17 07:00N 14°12' W 060°48'714.5 100 / 151015.010.8 26.023.127.8
2019-Aug-17 06:31N 14°10' W 060°41'816.4
2019-Aug-17 06:00N 14°06' W 060°33'78 3.9
2019-Aug-16 10:00N 13°06' W 059°42'29 9.8 060 / 141014.0 0.5 27.025.6
2019-Aug-16 07:00N 13°24' W 060°06'66 9.2 070 / 201013.010.8 26.023.127.7
2019-Aug-15 23:50N 13°45' W 061°10'3 8.8
2019-Aug-15 23:29N 13°48' W 061°11'4 8.9
2019-Aug-15 23:01N 13°52' W 061°11'510.4
2019-Aug-15 22:31N 13°57' W 061°10'510.7
2019-Aug-15 22:00N 14°02' W 061°09'5 9.5
2019-Aug-15 21:30N 14°03' W 061°04'5 1.2
2019-Aug-15 17:43N 14°01' W 060°60'0 0.0
2019-Aug-15 17:24N 14°01' W 060°60'0 0.0
2019-Aug-15 16:54N 14°01' W 060°60'0 0.0
2019-Aug-15 16:27N 14°01' W 060°60'0 0.0
2019-Aug-15 15:57N 14°01' W 060°60'0 0.0
2019-Aug-15 15:29N 14°01' W 060°60'0 0.0
2019-Aug-15 14:53N 14°01' W 060°60'0 0.0
2019-Aug-15 14:29N 14°01' W 060°60'0 0.0
2019-Aug-15 13:59N 14°01' W 060°60'0 0.0
2019-Aug-15 13:29N 14°01' W 060°60'0 0.0
2019-Aug-15 12:59N 14°01' W 060°60'0 0.0
2019-Aug-15 12:28N 14°01' W 060°60'0 0.0
2019-Aug-15 11:52N 14°01' W 060°60'0 0.1
2019-Aug-15 11:24N 14°01' W 060°60'1 3.3
2019-Aug-15 11:00N 14°01' W 061°01'713.2
2019-Aug-15 10:30N 14°05' W 061°06'815.3
2019-Aug-15 10:00N 14°10' W 061°13'8478.5
2019-Aug-15 10:00N 14°06' W 061°06'4816.0 090 / 281013.0 0.5 26.023.1
2019-Aug-15 07:00N 14°48' W 061°30'6917.3 100 / 351013.010.8 26.023.127.5
2019-Aug-15 03:00N 15°48' W 062°06'8716.3 170 / 311015.010.8 27.022.628.0
2019-Aug-14 21:40N 17°07' W 062°43'716.6
2019-Aug-14 21:13N 17°15' W 062°43'2 0.2
2019-Aug-14 10:58N 17°16' W 062°46'9 8.5
2019-Aug-14 09:56N 17°17' W 062°55'4 8.9
2019-Aug-14 09:30N 17°20' W 062°57'5 8.9
2019-Aug-14 08:59N 17°23' W 063°01'  

Dump ship's entire track history